createdAt,value
2022-09-22T00:01:26.117Z,96.30
2022-09-22T00:03:55.018Z,95.80
2022-09-22T00:06:26.489Z,95.80
2022-09-22T00:08:54.659Z,96.00
2022-09-22T00:11:22.693Z,96.30
2022-09-22T00:13:51.601Z,96.30
2022-09-22T00:16:20.437Z,96.40
2022-09-22T00:18:47.157Z,96.20
2022-09-22T00:21:15.546Z,96.20
2022-09-22T00:23:42.595Z,96.40
2022-09-22T00:26:11.026Z,96.60
2022-09-22T00:28:38.733Z,96.40
2022-09-22T00:31:16.025Z,96.60
2022-09-22T00:33:43.237Z,96.60
2022-09-22T00:36:10.249Z,96.80
2022-09-22T00:38:37.814Z,96.60
2022-09-22T00:41:04.901Z,96.00
2022-09-22T00:43:34.161Z,96.20
2022-09-22T00:46:03.042Z,96.30
2022-09-22T00:48:31.897Z,96.30
2022-09-22T00:51:00.025Z,96.20
2022-09-22T00:53:26.865Z,96.30
2022-09-22T00:56:02.312Z,96.10
2022-09-22T00:58:31.841Z,96.40
2022-09-22T01:00:58.853Z,96.40
2022-09-22T01:03:29.723Z,96.40
2022-09-22T01:05:58.308Z,96.50
2022-09-22T01:08:25.707Z,96.40
2022-09-22T01:10:53.802Z,96.60
2022-09-22T01:13:26.429Z,96.70
2022-09-22T01:16:04.890Z,96.70
2022-09-22T01:18:37.866Z,96.80
2022-09-22T01:21:23.051Z,97.40
2022-09-22T01:24:00.878Z,97.30
2022-09-22T01:26:27.501Z,97.60
2022-09-22T01:29:22.934Z,97.80
2022-09-22T01:31:57.709Z,97.30
2022-09-22T01:34:24.349Z,97.10
2022-09-22T01:37:09.286Z,97.30
2022-09-22T01:39:35.949Z,97.30
2022-09-22T01:42:15.101Z,97.10
2022-09-22T01:44:51.633Z,97.20
2022-09-22T01:47:18.340Z,97.30
2022-09-22T01:49:53.739Z,97.60
2022-09-22T01:52:22.983Z,97.90
2022-09-22T01:54:57.997Z,98.20
2022-09-22T01:57:51.007Z,98.50
2022-09-22T02:00:18.020Z,98.30
2022-09-22T02:02:47.527Z,98.70
2022-09-22T02:05:23.740Z,99.10
2022-09-22T02:07:51.806Z,99.40
2022-09-22T02:10:20.504Z,99.10
2022-09-22T02:12:47.198Z,99.00
2022-09-22T02:15:13.884Z,99.20
2022-09-22T02:17:40.633Z,99.20
2022-09-22T02:20:08.632Z,99.50
2022-09-22T02:22:35.339Z,99.50
2022-09-22T02:25:01.998Z,99.40
2022-09-22T02:27:30.558Z,99.30
2022-09-22T02:29:59.650Z,99.90
2022-09-22T03:41:04.758Z,99.90
2022-09-22T03:43:31.452Z,99.90
2022-09-22T03:45:59.079Z,99.90
2022-09-22T03:48:26.838Z,99.90
2022-09-22T03:50:53.614Z,99.90
2022-09-22T03:53:20.355Z,99.90
2022-09-22T03:55:47.148Z,99.90
2022-09-22T03:58:13.978Z,99.90
2022-09-22T04:00:40.661Z,99.90
2022-09-22T04:03:07.359Z,99.90
2022-09-22T04:05:34.091Z,99.90
2022-09-22T04:08:00.888Z,99.90
2022-09-22T04:10:27.560Z,99.90
2022-09-22T04:12:54.233Z,99.90
2022-09-22T04:15:20.886Z,99.90
2022-09-22T04:17:48.209Z,99.90
2022-09-22T04:20:14.879Z,99.90
2022-09-22T04:22:41.590Z,99.90
2022-09-22T04:25:08.637Z,99.90
2022-09-22T04:27:35.284Z,99.90
2022-09-22T04:30:02.010Z,99.90
2022-09-22T04:32:28.659Z,99.90
2022-09-22T04:34:55.347Z,99.90
2022-09-22T04:37:22.042Z,99.90
2022-09-22T04:39:48.685Z,99.90
2022-09-22T04:42:15.342Z,99.90
2022-09-22T04:44:41.977Z,99.90
2022-09-22T04:47:08.625Z,99.90
2022-09-22T04:49:35.301Z,99.90
2022-09-22T04:52:02.056Z,99.90
2022-09-22T04:54:28.724Z,99.90
2022-09-22T04:56:55.387Z,99.90
2022-09-22T04:59:22.077Z,99.90
2022-09-22T05:01:48.790Z,99.90
2022-09-22T05:04:15.466Z,99.90
2022-09-22T05:06:42.210Z,99.90
2022-09-22T05:09:08.945Z,99.90
2022-09-22T05:11:35.726Z,99.90
2022-09-22T05:14:02.373Z,99.90
2022-09-22T05:16:29.141Z,99.90
2022-09-22T05:18:55.892Z,99.90
2022-09-22T05:21:22.563Z,99.90
2022-09-22T05:23:49.366Z,99.90
2022-09-22T05:26:16.031Z,99.90
2022-09-22T05:28:42.756Z,99.90
2022-09-22T05:31:09.424Z,99.90
2022-09-22T05:33:36.258Z,99.90
2022-09-22T05:36:03.099Z,99.90
2022-09-22T05:38:29.750Z,99.90
2022-09-22T05:40:56.456Z,99.90
2022-09-22T05:43:23.141Z,99.90
2022-09-22T05:45:49.957Z,99.90
2022-09-22T05:48:16.766Z,99.90
2022-09-22T05:50:43.714Z,99.90
2022-09-22T05:53:10.689Z,99.90
2022-09-22T06:02:58.724Z,99.90
2022-09-22T06:05:25.520Z,99.90
2022-09-22T06:07:58.953Z,99.90
2022-09-22T06:10:25.663Z,99.90
2022-09-22T06:12:57.128Z,99.90
2022-09-22T06:15:23.819Z,99.90
2022-09-22T06:17:53.594Z,99.90
2022-09-22T06:20:20.328Z,99.90
2022-09-22T06:22:47.022Z,99.90
2022-09-22T06:25:13.715Z,99.90
2022-09-22T06:27:40.443Z,99.90
2022-09-22T06:30:07.527Z,99.90
2022-09-22T06:32:34.206Z,99.90
2022-09-22T06:35:00.860Z,99.90
2022-09-22T06:37:27.602Z,99.90
2022-09-22T06:39:54.417Z,99.90
2022-09-22T06:42:21.078Z,99.90
2022-09-22T06:44:48.070Z,99.90
2022-09-22T06:47:14.793Z,99.90
2022-09-22T06:49:41.498Z,99.90
2022-09-22T06:52:12.730Z,99.90
2022-09-22T06:54:39.406Z,99.90
2022-09-22T06:57:06.084Z,99.90
2022-09-22T06:59:32.750Z,99.90
2022-09-22T07:01:59.490Z,99.90
2022-09-22T07:04:26.250Z,99.90
2022-09-22T07:06:52.883Z,99.90
2022-09-22T07:09:19.614Z,99.90
2022-09-22T07:11:46.284Z,99.90
2022-09-22T07:14:12.990Z,99.90
2022-09-22T07:16:39.691Z,99.90
2022-09-22T07:19:06.606Z,99.90
2022-09-22T07:21:33.297Z,99.90
2022-09-22T07:24:00.005Z,99.10
2022-09-22T07:26:28.359Z,98.80
2022-09-22T07:28:55.753Z,98.70
2022-09-22T07:31:27.748Z,98.30
2022-09-22T07:33:55.997Z,98.60
2022-09-22T07:36:23.689Z,97.60
2022-09-22T07:38:51.072Z,97.60
2022-09-22T07:41:21.999Z,98.40
2022-09-22T07:43:52.542Z,97.30
2022-09-22T07:46:19.888Z,97.00
2022-09-22T07:48:46.716Z,96.20
2022-09-22T07:53:43.911Z,94.20
2022-09-22T07:56:11.463Z,92.00
2022-09-22T07:58:39.706Z,90.30
2022-09-22T08:01:07.333Z,90.80
2022-09-22T08:03:34.314Z,89.30
2022-09-22T08:06:05.876Z,89.60
2022-09-22T08:08:32.833Z,87.60
2022-09-22T08:11:06.330Z,88.00
2022-09-22T08:13:33.256Z,89.80
2022-09-22T08:16:00.392Z,88.10
2022-09-22T08:18:27.105Z,88.50
2022-09-22T08:20:53.830Z,86.80
2022-09-22T08:23:20.497Z,90.30
2022-09-22T08:25:47.173Z,88.80
2022-09-22T08:28:13.906Z,89.10
2022-09-22T08:30:44.575Z,88.10
2022-09-22T08:33:11.232Z,89.00
2022-09-22T08:35:37.937Z,88.90
2022-09-22T08:38:08.221Z,87.40
2022-09-22T08:40:38.991Z,87.20
2022-09-22T08:43:05.710Z,85.90
2022-09-22T08:45:34.658Z,85.60
2022-09-22T08:48:06.364Z,86.70
2022-09-22T08:50:36.854Z,87.50
2022-09-22T08:53:04.749Z,84.90
2022-09-22T08:55:31.801Z,80.80
2022-09-22T08:58:17.235Z,83.80
2022-09-22T09:00:47.298Z,79.60
2022-09-22T09:03:26.301Z,79.40
2022-09-22T09:06:10.983Z,77.90
2022-09-22T09:08:57.551Z,78.00
2022-09-22T09:11:49.227Z,78.60
2022-09-22T09:14:39.115Z,78.10
2022-09-22T09:17:18.225Z,75.30
2022-09-22T09:19:49.734Z,77.70
2022-09-22T09:22:19.132Z,79.20
2022-09-22T09:27:39.396Z,76.20
2022-09-22T09:30:15.028Z,74.80
2022-09-22T09:32:50.381Z,71.50
2022-09-22T09:35:22.132Z,73.80
2022-09-22T09:37:48.937Z,74.90
2022-09-22T09:40:16.987Z,77.30
2022-09-22T09:42:45.443Z,77.80
2022-09-22T09:45:14.156Z,74.70
2022-09-22T09:47:46.466Z,74.90
2022-09-22T09:50:13.626Z,74.40
2022-09-22T09:52:40.304Z,73.30
2022-09-22T09:55:18.148Z,69.90
2022-09-22T09:58:03.336Z,72.20
2022-09-22T10:00:30.005Z,72.90
2022-09-22T10:03:02.847Z,72.00
2022-09-22T10:05:30.237Z,69.80
2022-09-22T10:07:58.025Z,70.20
2022-09-22T10:10:35.084Z,70.40
2022-09-22T10:13:04.749Z,65.80
2022-09-22T10:15:35.506Z,66.80
2022-09-22T10:18:02.518Z,67.50
2022-09-22T10:20:29.166Z,65.80
2022-09-22T10:22:56.296Z,67.20
2022-09-22T10:25:27.421Z,68.20
2022-09-22T10:28:06.349Z,67.80
2022-09-22T10:30:33.124Z,69.50
2022-09-22T10:33:18.673Z,72.10
2022-09-22T10:35:54.545Z,67.90
2022-09-22T10:38:24.859Z,66.90
2022-09-22T10:41:02.240Z,68.50
2022-09-22T10:43:37.786Z,65.10
2022-09-22T10:48:44.673Z,64.10
2022-09-22T10:51:26.334Z,65.50
2022-09-22T10:54:10.830Z,65.10
2022-09-22T10:56:39.984Z,65.50
2022-09-22T10:59:15.752Z,66.50
2022-09-22T11:02:01.031Z,64.10
2022-09-22T11:04:40.029Z,66.80
2022-09-22T11:07:09.572Z,67.10
2022-09-22T11:09:50.743Z,66.00
2022-09-22T11:12:34.376Z,65.60
2022-09-22T11:15:19.653Z,66.00
2022-09-22T11:17:46.303Z,67.00
2022-09-22T11:20:15.715Z,64.00
2022-09-22T11:23:07.378Z,65.10
2022-09-22T11:25:33.999Z,61.80
2022-09-22T11:28:03.421Z,63.50
2022-09-22T11:30:34.071Z,62.00
2022-09-22T11:33:03.781Z,65.00
2022-09-22T11:35:36.399Z,61.90
2022-09-22T11:38:11.344Z,59.70
2022-09-22T11:43:27.537Z,60.00
2022-09-22T11:46:01.432Z,62.50
2022-09-22T11:48:46.446Z,61.90
2022-09-22T11:51:18.849Z,60.80
2022-09-22T11:53:51.610Z,61.30
2022-09-22T11:56:25.322Z,62.70
2022-09-22T11:58:53.229Z,58.80
2022-09-22T12:01:21.947Z,60.00
2022-09-22T12:03:51.735Z,61.50
2022-09-22T12:06:19.806Z,60.80
2022-09-22T12:11:26.736Z,61.20
2022-09-22T12:13:54.571Z,65.30
2022-09-22T12:16:33.360Z,63.30
2022-09-22T12:19:04.724Z,62.50
2022-09-22T12:21:51.657Z,65.30
2022-09-22T12:24:18.533Z,60.30
2022-09-22T12:26:46.326Z,63.80
2022-09-22T12:29:16.016Z,60.70
2022-09-22T12:31:43.766Z,63.60
2022-09-22T12:34:20.883Z,62.40
2022-09-22T12:36:48.214Z,62.80
2022-09-22T12:39:16.649Z,60.60
2022-09-22T12:41:49.302Z,59.10
2022-09-22T12:44:17.947Z,58.00
2022-09-22T12:46:44.971Z,58.40
2022-09-22T12:49:15.096Z,58.20
2022-09-22T12:51:41.837Z,60.00
2022-09-22T12:54:23.722Z,60.20
2022-09-22T12:57:20.400Z,60.50
2022-09-22T12:59:54.846Z,61.10
2022-09-22T13:02:29.444Z,60.40
2022-09-22T13:04:56.131Z,60.20
2022-09-22T13:07:37.867Z,58.60
2022-09-22T13:10:22.660Z,58.10
2022-09-22T13:13:01.771Z,59.10
2022-09-22T13:15:29.319Z,60.00
2022-09-22T13:17:55.998Z,59.70
2022-09-22T13:20:33.231Z,58.20
2022-09-22T13:23:12.556Z,60.10
2022-09-22T13:25:39.884Z,58.10
2022-09-22T13:28:12.115Z,58.40
2022-09-22T13:30:39.626Z,58.10
2022-09-22T13:33:17.408Z,60.00
2022-09-22T13:35:44.357Z,57.20
2022-09-22T13:38:13.297Z,56.70
2022-09-22T13:40:45.022Z,58.80
2022-09-22T13:43:11.850Z,57.10
2022-09-22T13:45:39.394Z,58.00
2022-09-22T13:48:10.934Z,58.10
2022-09-22T13:50:40.418Z,58.90
2022-09-22T13:53:07.801Z,59.40
2022-09-22T13:55:36.158Z,59.20
2022-09-22T13:58:03.659Z,58.40
2022-09-22T14:01:01.475Z,59.40
2022-09-22T14:03:26.453Z,60.30
2022-09-22T14:05:54.131Z,61.90
2022-09-22T14:08:24.690Z,60.90
2022-09-22T14:10:51.693Z,63.00
2022-09-22T14:13:37.080Z,62.80
2022-09-22T14:16:08.461Z,61.70
2022-09-22T14:18:38.860Z,60.00
2022-09-22T14:21:08.316Z,60.90
2022-09-22T14:23:35.422Z,61.70
2022-09-22T14:26:03.923Z,59.70
2022-09-22T14:28:33.933Z,61.50
2022-09-22T14:31:01.176Z,61.00
2022-09-22T14:33:29.806Z,59.20
2022-09-22T14:36:00.764Z,59.30
2022-09-22T14:38:28.979Z,60.00
2022-09-22T14:40:58.746Z,63.80
2022-09-22T14:43:30.163Z,64.60
2022-09-22T14:45:58.762Z,68.80
2022-09-22T14:48:32.954Z,68.10
2022-09-22T14:51:04.610Z,69.40
2022-09-22T14:53:37.659Z,70.10
2022-09-22T14:56:07.777Z,70.00
2022-09-22T14:58:40.303Z,68.10
2022-09-22T15:01:24.725Z,68.20
2022-09-22T15:03:59.670Z,68.80
2022-09-22T15:06:34.803Z,67.80
2022-09-22T15:09:02.395Z,68.10
2022-09-22T15:11:48.929Z,69.10
2022-09-22T15:14:24.692Z,65.50
2022-09-22T15:16:51.408Z,68.80
2022-09-22T15:19:18.179Z,67.60
2022-09-22T15:21:44.959Z,70.60
2022-09-22T15:24:11.895Z,72.30
2022-09-22T15:26:39.019Z,72.60
2022-09-22T15:29:05.767Z,71.30
2022-09-22T15:31:32.571Z,72.00
2022-09-22T15:34:00.406Z,72.60
2022-09-22T15:36:28.090Z,69.90
2022-09-22T15:38:58.183Z,71.20
2022-09-22T15:41:24.973Z,64.90
2022-09-22T15:43:51.855Z,64.20
2022-09-22T15:46:27.557Z,66.00
2022-09-22T15:48:57.579Z,64.40
2022-09-22T15:51:24.265Z,64.30
2022-09-22T15:53:50.943Z,65.20
2022-09-22T15:56:17.787Z,65.00
2022-09-22T15:58:44.500Z,66.50
2022-09-22T16:01:11.390Z,65.40
2022-09-22T16:03:41.355Z,66.10
2022-09-22T16:06:10.911Z,67.00
2022-09-22T16:08:39.620Z,68.00
2022-09-22T16:11:06.273Z,69.10
2022-09-22T16:13:33.175Z,69.70
2022-09-22T16:16:00.543Z,69.50
2022-09-22T16:18:27.221Z,67.80
2022-09-22T16:21:02.318Z,68.30
2022-09-22T16:23:28.963Z,70.30
2022-09-22T16:25:55.663Z,70.20
2022-09-22T16:28:22.296Z,71.40
2022-09-22T16:30:48.950Z,71.90
2022-09-22T16:33:15.674Z,72.20
2022-09-22T16:35:42.341Z,71.50
2022-09-22T16:38:09.004Z,71.70
2022-09-22T16:40:35.797Z,71.70
2022-09-22T16:43:02.494Z,72.70
2022-09-22T16:45:29.358Z,74.50
2022-09-22T16:47:56.021Z,74.60
2022-09-22T16:50:22.671Z,74.80
2022-09-22T16:52:49.439Z,74.20
2022-09-22T16:57:43.154Z,74.60
2022-09-22T17:00:10.119Z,75.30
2022-09-22T17:02:36.836Z,75.20
2022-09-22T17:05:03.591Z,75.20
2022-09-22T17:07:30.259Z,75.20
2022-09-22T17:09:56.967Z,75.70
2022-09-22T17:12:23.630Z,76.60
2022-09-22T17:14:50.315Z,77.20
2022-09-22T17:17:17.051Z,76.50
2022-09-22T17:19:43.733Z,76.50
2022-09-22T17:22:10.417Z,77.70
2022-09-22T17:24:37.054Z,77.60
2022-09-22T17:27:03.794Z,76.80
2022-09-22T17:29:30.540Z,78.00
2022-09-22T17:31:58.519Z,79.70
2022-09-22T17:34:26.306Z,79.00
2022-09-22T17:36:52.964Z,78.80
2022-09-22T17:39:19.698Z,78.10
2022-09-22T17:41:46.333Z,78.90
2022-09-22T17:44:13.659Z,76.00
2022-09-22T17:46:40.437Z,76.10
2022-09-22T17:49:08.772Z,77.00
2022-09-22T17:51:36.536Z,77.40
2022-09-22T17:54:04.784Z,77.80
2022-09-22T17:56:31.441Z,78.60
2022-09-22T17:58:58.175Z,78.40
2022-09-22T18:01:24.999Z,78.60
2022-09-22T18:03:51.725Z,79.40
2022-09-22T18:06:18.436Z,79.80
2022-09-22T18:08:45.111Z,79.30
2022-09-22T18:11:11.781Z,79.10
2022-09-22T18:13:39.335Z,79.70
2022-09-22T18:16:16.320Z,79.90
2022-09-22T18:18:43.024Z,80.60
2022-09-22T18:21:09.667Z,80.40
2022-09-22T18:23:36.352Z,80.60
2022-09-22T18:26:03.420Z,79.40
2022-09-22T18:28:30.119Z,80.20
2022-09-22T18:30:56.888Z,80.80
2022-09-22T18:33:23.643Z,80.60
2022-09-22T18:35:50.319Z,80.40
2022-09-22T18:38:16.991Z,80.50
2022-09-22T18:40:43.957Z,80.50
2022-09-22T18:43:10.751Z,80.90
2022-09-22T18:45:37.390Z,80.60
2022-09-22T18:48:04.145Z,79.80
2022-09-22T18:50:31.079Z,79.90
2022-09-22T18:52:57.995Z,79.60
2022-09-22T18:55:24.789Z,79.50
2022-09-22T18:57:51.737Z,79.50
2022-09-22T19:00:18.619Z,79.00
2022-09-22T19:02:45.611Z,79.70
2022-09-22T19:05:12.325Z,79.20
2022-09-22T19:07:46.027Z,79.70
2022-09-22T19:10:17.626Z,80.60
2022-09-22T19:12:44.340Z,80.70
2022-09-22T19:15:15.662Z,81.50
2022-09-22T19:17:44.089Z,81.20
2022-09-22T19:20:20.854Z,80.60
2022-09-22T19:22:48.021Z,80.80
2022-09-22T19:25:14.710Z,80.80
2022-09-22T19:27:41.578Z,81.40
2022-09-22T19:30:09.477Z,81.10
2022-09-22T19:32:36.409Z,81.20
2022-09-22T19:35:03.453Z,81.20
2022-09-22T19:37:30.382Z,80.80
2022-09-22T19:39:57.145Z,80.90
2022-09-22T19:42:24.262Z,81.00
2022-09-22T19:44:50.990Z,81.30
2022-09-22T19:47:17.713Z,81.40
2022-09-22T19:49:44.611Z,82.00
2022-09-22T19:52:11.435Z,81.70
2022-09-22T19:54:38.165Z,81.50
2022-09-22T19:57:05.071Z,81.40
2022-09-22T19:59:31.758Z,82.00
2022-09-22T20:01:58.672Z,81.40
2022-09-22T20:04:25.411Z,80.80
2022-09-22T20:06:52.595Z,81.60
2022-09-22T20:09:19.294Z,82.90
2022-09-22T20:11:47.418Z,83.00
2022-09-22T20:14:14.609Z,83.20
2022-09-22T20:16:44.679Z,83.80
2022-09-22T20:19:13.604Z,83.90
2022-09-22T20:21:41.727Z,84.10
2022-09-22T20:24:11.370Z,83.90
2022-09-22T20:26:38.116Z,84.40
2022-09-22T20:29:05.229Z,84.90
2022-09-22T20:31:31.977Z,84.70
2022-09-22T20:33:58.689Z,85.20
2022-09-22T20:36:25.459Z,85.30
2022-09-22T20:38:52.165Z,85.20
2022-09-22T20:41:19.781Z,84.80
2022-09-22T20:43:46.484Z,85.50
2022-09-22T20:46:13.582Z,85.30
2022-09-22T20:48:40.347Z,85.50
2022-09-22T20:51:07.562Z,85.70
2022-09-22T20:53:35.329Z,86.00
2022-09-22T20:56:03.951Z,86.30
2022-09-22T20:58:32.195Z,85.70
2022-09-22T21:00:59.366Z,85.50
2022-09-22T21:03:26.475Z,85.60
2022-09-22T21:05:58.027Z,85.60
2022-09-22T21:08:24.776Z,86.00
2022-09-22T21:10:51.441Z,86.30
2022-09-22T21:13:18.203Z,87.20
2022-09-22T21:15:44.979Z,88.90
2022-09-22T21:18:11.735Z,90.00
2022-09-22T21:20:39.785Z,90.00
2022-09-22T21:23:06.506Z,91.00
2022-09-22T21:25:33.245Z,90.90
2022-09-22T21:27:59.971Z,91.20
2022-09-22T21:30:26.695Z,91.70
2022-09-22T21:35:20.619Z,92.50
2022-09-22T21:37:47.381Z,93.00
2022-09-22T21:40:14.246Z,93.60
2022-09-22T21:42:41.123Z,93.50
2022-09-22T21:45:08.102Z,93.50
2022-09-22T21:47:34.817Z,93.10
2022-09-22T21:50:01.523Z,92.60
2022-09-22T21:52:28.256Z,92.70
2022-09-22T21:54:54.962Z,93.20
2022-09-22T21:57:21.690Z,94.30
2022-09-22T21:59:48.388Z,94.80
2022-09-22T22:02:15.098Z,95.10
2022-09-22T22:04:41.903Z,95.50
2022-09-22T22:07:08.717Z,95.30
2022-09-22T22:09:35.425Z,95.10
2022-09-22T22:12:02.158Z,95.20
2022-09-22T22:14:28.977Z,95.50
2022-09-22T22:16:55.666Z,95.20
2022-09-22T22:19:23.150Z,95.20
2022-09-22T22:21:50.539Z,94.70
2022-09-22T22:24:19.220Z,95.00
2022-09-22T22:26:46.799Z,94.70
2022-09-22T22:29:13.849Z,95.00
2022-09-22T22:31:40.917Z,94.90
2022-09-22T22:34:11.903Z,95.30
2022-09-22T22:36:38.947Z,95.50
2022-09-22T22:39:05.960Z,95.80
2022-09-22T22:41:32.930Z,96.50
2022-09-22T22:43:59.591Z,96.40
2022-09-22T22:46:26.382Z,96.80
2022-09-22T22:48:53.188Z,96.70
2022-09-22T22:51:20.406Z,96.60
2022-09-22T22:53:47.328Z,96.60
2022-09-22T22:56:15.490Z,96.50
2022-09-22T22:58:43.043Z,96.60
2022-09-22T23:01:11.433Z,96.60
2022-09-22T23:03:39.061Z,96.60
2022-09-22T23:06:05.875Z,96.80
2022-09-22T23:08:32.607Z,97.30
2022-09-22T23:11:00.280Z,97.60
2022-09-22T23:13:27.028Z,97.70
2022-09-22T23:16:00.323Z,97.40
2022-09-22T23:18:27.175Z,97.20
2022-09-22T23:20:54.157Z,97.60
2022-09-22T23:23:20.950Z,98.30
2022-09-22T23:25:51.313Z,98.80
2022-09-22T23:28:18.039Z,99.20
2022-09-22T23:30:44.851Z,99.70
2022-09-22T23:33:11.793Z,99.30
2022-09-22T23:35:38.573Z,99.80
2022-09-22T23:38:07.782Z,99.90
2022-09-22T23:40:35.971Z,99.90
2022-09-22T23:43:02.727Z,99.90
2022-09-22T23:45:29.436Z,99.90
2022-09-22T23:47:56.196Z,99.90
2022-09-22T23:50:22.998Z,99.90
2022-09-22T23:52:49.782Z,99.90
2022-09-22T23:55:16.554Z,99.90
2022-09-22T23:57:43.277Z,99.90
